sensor_id;sensor_type;location;lat;lon;timestamp;P1;durP1;ratioP1;P2;durP2;ratioP2
17214;SDS011;8723;51.502;6.918;2023-04-01T00:00:23;4.88;;;1.70;;
17214;SDS011;8723;51.502;6.918;2023-04-01T00:02:49;5.45;;;1.63;;
17214;SDS011;8723;51.502;6.918;2023-04-01T00:05:17;6.18;;;1.80;;
17214;SDS011;8723;51.502;6.918;2023-04-01T00:07:44;5.07;;;1.60;;
17214;SDS011;8723;51.502;6.918;2023-04-01T00:10:11;4.47;;;1.58;;
17214;SDS011;8723;51.502;6.918;2023-04-01T00:12:39;5.63;;;1.95;;
17214;SDS011;8723;51.502;6.918;2023-04-01T00:15:08;4.50;;;1.70;;
17214;SDS011;8723;51.502;6.918;2023-04-01T00:17:38;7.00;;;1.88;;
17214;SDS011;8723;51.502;6.918;2023-04-01T00:20:06;4.78;;;1.67;;
17214;SDS011;8723;51.502;6.918;2023-04-01T00:22:34;5.00;;;1.80;;
17214;SDS011;8723;51.502;6.918;2023-04-01T00:25:01;5.50;;;2.22;;
17214;SDS011;8723;51.502;6.918;2023-04-01T00:27:29;4.30;;;1.92;;
17214;SDS011;8723;51.502;6.918;2023-04-01T00:29:56;5.20;;;2.17;;
17214;SDS011;8723;51.502;6.918;2023-04-01T00:32:23;4.57;;;1.60;;
17214;SDS011;8723;51.502;6.918;2023-04-01T00:34:51;6.00;;;1.90;;
17214;SDS011;8723;51.502;6.918;2023-04-01T00:37:19;4.15;;;1.90;;
17214;SDS011;8723;51.502;6.918;2023-04-01T00:39:46;6.75;;;2.00;;
17214;SDS011;8723;51.502;6.918;2023-04-01T00:42:13;5.60;;;2.00;;
17214;SDS011;8723;51.502;6.918;2023-04-01T00:44:40;5.72;;;2.10;;
17214;SDS011;8723;51.502;6.918;2023-04-01T00:47:09;4.70;;;1.67;;
17214;SDS011;8723;51.502;6.918;2023-04-01T00:49:37;4.13;;;1.42;;
17214;SDS011;8723;51.502;6.918;2023-04-01T00:52:08;4.28;;;1.50;;
17214;SDS011;8723;51.502;6.918;2023-04-01T00:54:38;4.65;;;1.55;;
17214;SDS011;8723;51.502;6.918;2023-04-01T00:57:09;3.78;;;1.50;;
17214;SDS011;8723;51.502;6.918;2023-04-01T00:59:40;4.28;;;1.50;;
17214;SDS011;8723;51.502;6.918;2023-04-01T01:02:11;3.65;;;1.50;;
17214;SDS011;8723;51.502;6.918;2023-04-01T01:04:39;3.47;;;1.57;;
17214;SDS011;8723;51.502;6.918;2023-04-01T01:07:11;3.53;;;1.50;;
17214;SDS011;8723;51.502;6.918;2023-04-01T01:09:46;4.28;;;1.83;;
17214;SDS011;8723;51.502;6.918;2023-04-01T01:12:20;5.30;;;1.55;;
17214;SDS011;8723;51.502;6.918;2023-04-01T01:14:53;4.20;;;1.75;;
17214;SDS011;8723;51.502;6.918;2023-04-01T01:17:30;4.55;;;1.85;;
17214;SDS011;8723;51.502;6.918;2023-04-01T01:23:17;4.33;;;1.73;;
17214;SDS011;8723;51.502;6.918;2023-04-01T01:26:08;4.72;;;1.60;;
17214;SDS011;8723;51.502;6.918;2023-04-01T01:28:52;1.95;;;1.40;;
17214;SDS011;8723;51.502;6.918;2023-04-01T01:31:29;3.15;;;1.52;;
17214;SDS011;8723;51.502;6.918;2023-04-01T01:34:06;4.82;;;1.60;;
17214;SDS011;8723;51.502;6.918;2023-04-01T01:36:42;5.20;;;1.58;;
17214;SDS011;8723;51.502;6.918;2023-04-01T01:39:15;3.00;;;1.40;;
17214;SDS011;8723;51.502;6.918;2023-04-01T01:41:43;2.92;;;1.30;;
17214;SDS011;8723;51.502;6.918;2023-04-01T01:44:14;4.53;;;1.40;;
17214;SDS011;8723;51.502;6.918;2023-04-01T01:46:42;3.30;;;1.40;;
17214;SDS011;8723;51.502;6.918;2023-04-01T01:49:11;3.67;;;1.80;;
17214;SDS011;8723;51.502;6.918;2023-04-01T01:51:40;4.03;;;1.58;;
17214;SDS011;8723;51.502;6.918;2023-04-01T01:54:12;2.63;;;1.30;;
17214;SDS011;8723;51.502;6.918;2023-04-01T01:56:40;3.43;;;1.20;;
17214;SDS011;8723;51.502;6.918;2023-04-01T01:59:09;5.05;;;1.40;;
17214;SDS011;8723;51.502;6.918;2023-04-01T02:01:39;2.72;;;1.50;;
17214;SDS011;8723;51.502;6.918;2023-04-01T02:04:09;3.00;;;1.30;;
17214;SDS011;8723;51.502;6.918;2023-04-01T02:06:38;3.93;;;1.20;;
17214;SDS011;8723;51.502;6.918;2023-04-01T02:09:09;5.93;;;1.48;;
17214;SDS011;8723;51.502;6.918;2023-04-01T02:11:39;2.92;;;1.58;;
17214;SDS011;8723;51.502;6.918;2023-04-01T02:14:11;5.20;;;1.40;;
17214;SDS011;8723;51.502;6.918;2023-04-01T02:16:43;3.13;;;1.45;;
17214;SDS011;8723;51.502;6.918;2023-04-01T02:19:14;5.40;;;1.50;;
17214;SDS011;8723;51.502;6.918;2023-04-01T02:21:47;5.50;;;1.17;;
17214;SDS011;8723;51.502;6.918;2023-04-01T02:24:16;3.27;;;1.30;;
17214;SDS011;8723;51.502;6.918;2023-04-01T02:26:48;4.15;;;1.50;;
17214;SDS011;8723;51.502;6.918;2023-04-01T02:29:16;4.50;;;1.55;;
17214;SDS011;8723;51.502;6.918;2023-04-01T02:31:45;4.47;;;1.60;;
17214;SDS011;8723;51.502;6.918;2023-04-01T02:34:13;2.20;;;1.50;;
17214;SDS011;8723;51.502;6.918;2023-04-01T02:36:40;2.92;;;1.77;;
17214;SDS011;8723;51.502;6.918;2023-04-01T02:39:07;5.72;;;1.60;;
17214;SDS011;8723;51.502;6.918;2023-04-01T02:41:38;3.13;;;1.85;;
17214;SDS011;8723;51.502;6.918;2023-04-01T02:44:07;4.32;;;2.35;;
17214;SDS011;8723;51.502;6.918;2023-04-01T02:46:35;2.70;;;1.80;;
17214;SDS011;8723;51.502;6.918;2023-04-01T02:49:02;3.53;;;2.05;;
17214;SDS011;8723;51.502;6.918;2023-04-01T02:51:29;4.90;;;2.50;;
17214;SDS011;8723;51.502;6.918;2023-04-01T02:53:56;6.40;;;3.00;;
17214;SDS011;8723;51.502;6.918;2023-04-01T02:56:23;5.68;;;2.75;;
17214;SDS011;8723;51.502;6.918;2023-04-01T02:58:51;4.45;;;2.50;;
17214;SDS011;8723;51.502;6.918;2023-04-01T03:01:19;5.55;;;2.83;;
17214;SDS011;8723;51.502;6.918;2023-04-01T03:03:47;4.55;;;2.60;;
17214;SDS011;8723;51.502;6.918;2023-04-01T03:06:14;4.53;;;2.70;;
17214;SDS011;8723;51.502;6.918;2023-04-01T03:08:42;3.47;;;2.65;;
17214;SDS011;8723;51.502;6.918;2023-04-01T03:11:09;3.70;;;2.85;;
17214;SDS011;8723;51.502;6.918;2023-04-01T03:13:36;5.55;;;2.97;;
17214;SDS011;8723;51.502;6.918;2023-04-01T03:16:03;5.38;;;3.17;;
17214;SDS011;8723;51.502;6.918;2023-04-01T03:18:32;5.33;;;3.07;;
17214;SDS011;8723;51.502;6.918;2023-04-01T03:21:11;4.13;;;3.13;;
17214;SDS011;8723;51.502;6.918;2023-04-01T03:23:39;3.87;;;3.40;;
17214;SDS011;8723;51.502;6.918;2023-04-01T03:26:06;5.93;;;4.45;;
17214;SDS011;8723;51.502;6.918;2023-04-01T03:28:33;7.63;;;4.53;;
17214;SDS011;8723;51.502;6.918;2023-04-01T03:31:00;6.53;;;4.07;;
17214;SDS011;8723;51.502;6.918;2023-04-01T03:33:27;6.15;;;3.80;;
17214;SDS011;8723;51.502;6.918;2023-04-01T03:35:55;5.63;;;4.50;;
17214;SDS011;8723;51.502;6.918;2023-04-01T03:38:22;5.90;;;4.10;;
17214;SDS011;8723;51.502;6.918;2023-04-01T03:40:49;5.35;;;3.78;;
17214;SDS011;8723;51.502;6.918;2023-04-01T03:43:16;4.47;;;3.85;;
17214;SDS011;8723;51.502;6.918;2023-04-01T03:45:43;4.88;;;4.07;;
17214;SDS011;8723;51.502;6.918;2023-04-01T03:48:11;6.65;;;4.40;;
17214;SDS011;8723;51.502;6.918;2023-04-01T03:50:37;5.03;;;3.50;;
17214;SDS011;8723;51.502;6.918;2023-04-01T03:53:06;4.57;;;4.10;;
17214;SDS011;8723;51.502;6.918;2023-04-01T03:55:33;5.80;;;5.22;;
17214;SDS011;8723;51.502;6.918;2023-04-01T03:58:01;10.05;;;5.63;;
17214;SDS011;8723;51.502;6.918;2023-04-01T04:00:28;7.35;;;5.53;;
17214;SDS011;8723;51.502;6.918;2023-04-01T04:02:55;6.70;;;6.00;;
17214;SDS011;8723;51.502;6.918;2023-04-01T04:05:22;6.07;;;5.57;;
17214;SDS011;8723;51.502;6.918;2023-04-01T04:07:50;6.40;;;5.82;;
17214;SDS011;8723;51.502;6.918;2023-04-01T04:10:19;7.63;;;6.93;;
17214;SDS011;8723;51.502;6.918;2023-04-01T04:12:48;8.60;;;6.28;;
17214;SDS011;8723;51.502;6.918;2023-04-01T04:15:15;7.07;;;5.73;;
17214;SDS011;8723;51.502;6.918;2023-04-01T04:17:43;7.43;;;5.95;;
17214;SDS011;8723;51.502;6.918;2023-04-01T04:20:10;7.35;;;6.63;;
17214;SDS011;8723;51.502;6.918;2023-04-01T04:22:37;8.00;;;6.25;;
17214;SDS011;8723;51.502;6.918;2023-04-01T04:25:05;7.73;;;7.03;;
17214;SDS011;8723;51.502;6.918;2023-04-01T04:27:34;7.43;;;6.60;;
17214;SDS011;8723;51.502;6.918;2023-04-01T04:30:01;6.00;;;5.40;;
17214;SDS011;8723;51.502;6.918;2023-04-01T04:32:29;6.70;;;6.00;;
17214;SDS011;8723;51.502;6.918;2023-04-01T04:34:57;7.90;;;7.13;;
17214;SDS011;8723;51.502;6.918;2023-04-01T04:37:24;8.75;;;5.55;;
17214;SDS011;8723;51.502;6.918;2023-04-01T04:39:51;6.38;;;5.82;;
17214;SDS011;8723;51.502;6.918;2023-04-01T04:42:18;5.87;;;5.37;;
17214;SDS011;8723;51.502;6.918;2023-04-01T04:44:46;5.97;;;5.37;;
17214;SDS011;8723;51.502;6.918;2023-04-01T04:47:13;6.28;;;5.55;;
17214;SDS011;8723;51.502;6.918;2023-04-01T04:49:40;5.97;;;5.47;;
17214;SDS011;8723;51.502;6.918;2023-04-01T04:52:07;6.17;;;4.83;;
17214;SDS011;8723;51.502;6.918;2023-04-01T04:54:34;6.20;;;5.03;;
17214;SDS011;8723;51.502;6.918;2023-04-01T04:57:01;6.32;;;5.07;;
17214;SDS011;8723;51.502;6.918;2023-04-01T04:59:28;6.38;;;5.00;;
17214;SDS011;8723;51.502;6.918;2023-04-01T05:01:56;7.00;;;5.30;;
17214;SDS011;8723;51.502;6.918;2023-04-01T05:04:23;5.53;;;4.93;;
17214;SDS011;8723;51.502;6.918;2023-04-01T05:06:49;5.55;;;4.65;;
17214;SDS011;8723;51.502;6.918;2023-04-01T05:09:16;6.88;;;5.88;;
17214;SDS011;8723;51.502;6.918;2023-04-01T05:11:43;6.22;;;4.95;;
17214;SDS011;8723;51.502;6.918;2023-04-01T05:14:12;5.35;;;4.80;;
17214;SDS011;8723;51.502;6.918;2023-04-01T05:16:39;5.07;;;4.60;;
17214;SDS011;8723;51.502;6.918;2023-04-01T05:19:07;6.53;;;5.20;;
17214;SDS011;8723;51.502;6.918;2023-04-01T05:21:34;5.53;;;5.03;;
17214;SDS011;8723;51.502;6.918;2023-04-01T05:24:02;5.10;;;4.55;;
17214;SDS011;8723;51.502;6.918;2023-04-01T05:26:29;6.25;;;5.65;;
17214;SDS011;8723;51.502;6.918;2023-04-01T05:28:57;7.10;;;5.68;;
17214;SDS011;8723;51.502;6.918;2023-04-01T05:31:24;6.70;;;6.10;;
17214;SDS011;8723;51.502;6.918;2023-04-01T05:33:51;7.18;;;6.53;;
17214;SDS011;8723;51.502;6.918;2023-04-01T05:36:20;7.10;;;6.50;;
17214;SDS011;8723;51.502;6.918;2023-04-01T05:38:47;7.57;;;6.87;;
17214;SDS011;8723;51.502;6.918;2023-04-01T05:41:14;7.47;;;6.75;;
17214;SDS011;8723;51.502;6.918;2023-04-01T05:43:41;7.93;;;7.13;;
17214;SDS011;8723;51.502;6.918;2023-04-01T05:46:08;8.52;;;7.72;;
17214;SDS011;8723;51.502;6.918;2023-04-01T05:48:35;9.13;;;7.45;;
17214;SDS011;8723;51.502;6.918;2023-04-01T05:51:02;8.27;;;7.47;;
17214;SDS011;8723;51.502;6.918;2023-04-01T05:53:31;7.90;;;7.20;;
17214;SDS011;8723;51.502;6.918;2023-04-01T05:56:01;8.20;;;7.40;;
17214;SDS011;8723;51.502;6.918;2023-04-01T05:58:29;7.60;;;6.72;;
17214;SDS011;8723;51.502;6.918;2023-04-01T06:00:59;7.68;;;6.80;;
17214;SDS011;8723;51.502;6.918;2023-04-01T06:03:27;8.13;;;7.30;;
17214;SDS011;8723;51.502;6.918;2023-04-01T06:05:56;8.55;;;7.85;;
17214;SDS011;8723;51.502;6.918;2023-04-01T06:08:23;8.03;;;7.23;;
17214;SDS011;8723;51.502;6.918;2023-04-01T06:10:58;8.60;;;7.80;;
17214;SDS011;8723;51.502;6.918;2023-04-01T06:13:39;9.13;;;7.93;;
17214;SDS011;8723;51.502;6.918;2023-04-01T06:16:18;8.85;;;7.20;;
17214;SDS011;8723;51.502;6.918;2023-04-01T06:24:49;8.25;;;7.20;;
17214;SDS011;8723;51.502;6.918;2023-04-01T06:27:36;7.40;;;6.80;;
17214;SDS011;8723;51.502;6.918;2023-04-01T06:30:21;7.78;;;7.05;;
17214;SDS011;8723;51.502;6.918;2023-04-01T06:33:04;8.90;;;8.10;;
17214;SDS011;8723;51.502;6.918;2023-04-01T06:36:03;7.72;;;6.38;;
17214;SDS011;8723;51.502;6.918;2023-04-01T06:38:59;8.15;;;6.63;;
17214;SDS011;8723;51.502;6.918;2023-04-01T06:41:57;7.32;;;6.50;;
17214;SDS011;8723;51.502;6.918;2023-04-01T06:44:41;7.13;;;6.53;;
17214;SDS011;8723;51.502;6.918;2023-04-01T06:47:20;6.53;;;5.82;;
17214;SDS011;8723;51.502;6.918;2023-04-01T06:49:55;6.88;;;6.18;;
17214;SDS011;8723;51.502;6.918;2023-04-01T06:52:32;6.90;;;6.30;;
17214;SDS011;8723;51.502;6.918;2023-04-01T06:55:12;9.98;;;6.60;;
17214;SDS011;8723;51.502;6.918;2023-04-01T06:57:58;7.25;;;6.07;;
17214;SDS011;8723;51.502;6.918;2023-04-01T07:00:30;7.03;;;6.25;;
17214;SDS011;8723;51.502;6.918;2023-04-01T07:03:05;6.38;;;5.68;;
17214;SDS011;8723;51.502;6.918;2023-04-01T07:05:36;8.15;;;5.90;;
17214;SDS011;8723;51.502;6.918;2023-04-01T07:08:04;7.55;;;6.07;;
17214;SDS011;8723;51.502;6.918;2023-04-01T07:10:35;7.15;;;6.47;;
17214;SDS011;8723;51.502;6.918;2023-04-01T07:13:11;6.78;;;6.00;;
17214;SDS011;8723;51.502;6.918;2023-04-01T07:15:46;7.27;;;6.20;;
17214;SDS011;8723;51.502;6.918;2023-04-01T07:18:21;6.85;;;5.80;;
17214;SDS011;8723;51.502;6.918;2023-04-01T07:20:54;7.17;;;5.80;;
17214;SDS011;8723;51.502;6.918;2023-04-01T07:23:22;6.18;;;5.35;;
17214;SDS011;8723;51.502;6.918;2023-04-01T07:25:52;6.25;;;5.43;;
17214;SDS011;8723;51.502;6.918;2023-04-01T07:28:21;7.22;;;6.07;;
17214;SDS011;8723;51.502;6.918;2023-04-01T07:30:52;7.15;;;5.93;;
17214;SDS011;8723;51.502;6.918;2023-04-01T07:33:29;6.38;;;5.70;;
17214;SDS011;8723;51.502;6.918;2023-04-01T07:36:03;5.97;;;5.35;;
17214;SDS011;8723;51.502;6.918;2023-04-01T07:38:39;6.43;;;5.83;;
17214;SDS011;8723;51.502;6.918;2023-04-01T07:41:21;5.60;;;5.10;;
17214;SDS011;8723;51.502;6.918;2023-04-01T07:43:58;6.13;;;4.97;;
17214;SDS011;8723;51.502;6.918;2023-04-01T07:46:39;6.40;;;5.80;;
17214;SDS011;8723;51.502;6.918;2023-04-01T07:49:19;6.57;;;5.97;;
17214;SDS011;8723;51.502;6.918;2023-04-01T07:51:53;6.03;;;5.53;;
17214;SDS011;8723;51.502;6.918;2023-04-01T07:54:26;6.30;;;5.70;;
17214;SDS011;8723;51.502;6.918;2023-04-01T07:57:00;6.30;;;5.80;;
17214;SDS011;8723;51.502;6.918;2023-04-01T07:59:32;6.40;;;5.80;;
17214;SDS011;8723;51.502;6.918;2023-04-01T08:02:08;5.40;;;5.00;;
17214;SDS011;8723;51.502;6.918;2023-04-01T08:04:49;7.13;;;6.40;;
17214;SDS011;8723;51.502;6.918;2023-04-01T08:07:26;6.70;;;6.07;;
17214;SDS011;8723;51.502;6.918;2023-04-01T08:10:01;7.40;;;6.80;;
17214;SDS011;8723;51.502;6.918;2023-04-01T08:12:37;7.00;;;6.40;;
17214;SDS011;8723;51.502;6.918;2023-04-01T08:15:16;7.07;;;6.40;;
17214;SDS011;8723;51.502;6.918;2023-04-01T08:17:56;10.25;;;6.70;;
17214;SDS011;8723;51.502;6.918;2023-04-01T08:20:32;7.38;;;6.78;;
17214;SDS011;8723;51.502;6.918;2023-04-01T08:23:04;7.35;;;6.65;;
17214;SDS011;8723;51.502;6.918;2023-04-01T08:25:37;6.70;;;6.20;;
17214;SDS011;8723;51.502;6.918;2023-04-01T08:28:09;8.38;;;7.68;;
17214;SDS011;8723;51.502;6.918;2023-04-01T08:30:42;8.55;;;7.47;;
17214;SDS011;8723;51.502;6.918;2023-04-01T08:33:15;7.93;;;7.25;;
17214;SDS011;8723;51.502;6.918;2023-04-01T08:35:48;9.57;;;8.68;;
17214;SDS011;8723;51.502;6.918;2023-04-01T08:38:18;8.25;;;7.50;;
17214;SDS011;8723;51.502;6.918;2023-04-01T08:40:58;9.43;;;8.50;;
17214;SDS011;8723;51.502;6.918;2023-04-01T08:43:40;9.55;;;7.63;;
17214;SDS011;8723;51.502;6.918;2023-04-01T08:46:19;9.00;;;8.10;;
17214;SDS011;8723;51.502;6.918;2023-04-01T08:49:12;8.70;;;7.80;;
17214;SDS011;8723;51.502;6.918;2023-04-01T08:54:46;9.60;;;8.38;;
17214;SDS011;8723;51.502;6.918;2023-04-01T08:57:32;8.57;;;7.22;;
17214;SDS011;8723;51.502;6.918;2023-04-01T09:00:11;7.85;;;7.13;;
17214;SDS011;8723;51.502;6.918;2023-04-01T09:02:56;8.88;;;8.07;;
17214;SDS011;8723;51.502;6.918;2023-04-01T09:08:52;10.07;;;9.07;;
17214;SDS011;8723;51.502;6.918;2023-04-01T09:11:44;8.43;;;7.60;;
17214;SDS011;8723;51.502;6.918;2023-04-01T09:14:35;9.68;;;8.68;;
17214;SDS011;8723;51.502;6.918;2023-04-01T09:17:29;8.80;;;7.90;;
17214;SDS011;8723;51.502;6.918;2023-04-01T09:20:19;7.93;;;6.80;;
17214;SDS011;8723;51.502;6.918;2023-04-01T09:23:04;9.25;;;8.45;;
17214;SDS011;8723;51.502;6.918;2023-04-01T09:25:46;10.88;;;8.07;;
17214;SDS011;8723;51.502;6.918;2023-04-01T09:28:20;10.02;;;9.00;;
17214;SDS011;8723;51.502;6.918;2023-04-01T09:31:17;8.52;;;7.82;;
17214;SDS011;8723;51.502;6.918;2023-04-01T09:34:14;8.80;;;8.00;;
17214;SDS011;8723;51.502;6.918;2023-04-01T09:37:18;8.10;;;7.28;;
17214;SDS011;8723;51.502;6.918;2023-04-01T09:39:51;7.45;;;6.75;;
17214;SDS011;8723;51.502;6.918;2023-04-01T09:42:42;9.45;;;8.57;;
17214;SDS011;8723;51.502;6.918;2023-04-01T09:45:16;12.40;;;11.18;;
17214;SDS011;8723;51.502;6.918;2023-04-01T09:48:01;9.98;;;8.63;;
17214;SDS011;8723;51.502;6.918;2023-04-01T09:50:35;10.43;;;9.43;;
17214;SDS011;8723;51.502;6.918;2023-04-01T09:53:12;12.82;;;9.13;;
17214;SDS011;8723;51.502;6.918;2023-04-01T09:56:01;11.10;;;9.95;;
17214;SDS011;8723;51.502;6.918;2023-04-01T09:59:03;10.02;;;9.02;;
17214;SDS011;8723;51.502;6.918;2023-04-01T10:02:01;10.60;;;9.40;;
17214;SDS011;8723;51.502;6.918;2023-04-01T10:05:04;9.30;;;8.30;;
17214;SDS011;8723;51.502;6.918;2023-04-01T10:11:00;10.80;;;9.70;;
17214;SDS011;8723;51.502;6.918;2023-04-01T10:13:56;10.48;;;9.15;;
17214;SDS011;8723;51.502;6.918;2023-04-01T10:16:55;8.88;;;8.07;;
17214;SDS011;8723;51.502;6.918;2023-04-01T10:19:55;9.27;;;8.38;;
17214;SDS011;8723;51.502;6.918;2023-04-01T10:22:46;10.05;;;9.15;;
17214;SDS011;8723;51.502;6.918;2023-04-01T10:25:42;9.18;;;8.27;;
17214;SDS011;8723;51.502;6.918;2023-04-01T10:32:15;9.80;;;8.90;;
17214;SDS011;8723;51.502;6.918;2023-04-01T10:35:14;10.45;;;9.43;;
17214;SDS011;8723;51.502;6.918;2023-04-01T10:38:38;10.93;;;9.93;;
17214;SDS011;8723;51.502;6.918;2023-04-01T10:48:04;11.77;;;10.63;;
17214;SDS011;8723;51.502;6.918;2023-04-01T10:56:50;10.88;;;9.80;;
17214;SDS011;8723;51.502;6.918;2023-04-01T10:59:32;11.90;;;10.57;;
17214;SDS011;8723;51.502;6.918;2023-04-01T11:05:38;13.68;;;12.23;;
17214;SDS011;8723;51.502;6.918;2023-04-01T11:08:54;13.00;;;11.73;;
17214;SDS011;8723;51.502;6.918;2023-04-01T11:14:55;10.57;;;9.57;;
17214;SDS011;8723;51.502;6.918;2023-04-01T11:18:03;12.70;;;11.60;;
17214;SDS011;8723;51.502;6.918;2023-04-01T11:21:09;14.50;;;13.10;;
17214;SDS011;8723;51.502;6.918;2023-04-01T11:24:09;10.73;;;9.63;;
17214;SDS011;8723;51.502;6.918;2023-04-01T11:27:03;10.30;;;9.32;;
17214;SDS011;8723;51.502;6.918;2023-04-01T11:29:45;11.73;;;10.63;;
17214;SDS011;8723;51.502;6.918;2023-04-01T11:32:32;10.27;;;9.27;;
17214;SDS011;8723;51.502;6.918;2023-04-01T11:35:14;11.65;;;10.48;;
17214;SDS011;8723;51.502;6.918;2023-04-01T11:37:57;11.18;;;10.02;;
17214;SDS011;8723;51.502;6.918;2023-04-01T11:40:37;12.95;;;11.70;;
17214;SDS011;8723;51.502;6.918;2023-04-01T11:43:11;11.35;;;10.32;;
17214;SDS011;8723;51.502;6.918;2023-04-01T11:45:46;12.05;;;10.90;;
17214;SDS011;8723;51.502;6.918;2023-04-01T11:48:32;14.07;;;11.95;;
17214;SDS011;8723;51.502;6.918;2023-04-01T11:51:21;14.25;;;12.85;;
17214;SDS011;8723;51.502;6.918;2023-04-01T11:54:01;12.02;;;10.85;;
17214;SDS011;8723;51.502;6.918;2023-04-01T11:56:49;12.82;;;11.23;;
17214;SDS011;8723;51.502;6.918;2023-04-01T11:59:32;13.93;;;12.50;;
17214;SDS011;8723;51.502;6.918;2023-04-01T12:02:17;12.35;;;11.15;;
17214;SDS011;8723;51.502;6.918;2023-04-01T12:04:54;13.02;;;11.73;;
17214;SDS011;8723;51.502;6.918;2023-04-01T12:07:36;15.48;;;13.90;;
17214;SDS011;8723;51.502;6.918;2023-04-01T12:10:19;11.18;;;10.18;;
17214;SDS011;8723;51.502;6.918;2023-04-01T12:12:53;12.95;;;11.73;;
17214;SDS011;8723;51.502;6.918;2023-04-01T12:15:27;12.23;;;11.13;;
17214;SDS011;8723;51.502;6.918;2023-04-01T12:18:03;10.63;;;9.65;;
17214;SDS011;8723;51.502;6.918;2023-04-01T12:20:43;11.07;;;9.98;;
17214;SDS011;8723;51.502;6.918;2023-04-01T12:23:22;12.20;;;11.00;;
17214;SDS011;8723;51.502;6.918;2023-04-01T12:26:21;12.45;;;11.15;;
17214;SDS011;8723;51.502;6.918;2023-04-01T12:29:07;12.80;;;11.55;;
17214;SDS011;8723;51.502;6.918;2023-04-01T12:31:51;12.43;;;10.82;;
17214;SDS011;8723;51.502;6.918;2023-04-01T12:34:31;12.23;;;11.02;;
17214;SDS011;8723;51.502;6.918;2023-04-01T12:37:25;9.75;;;8.90;;
17214;SDS011;8723;51.502;6.918;2023-04-01T12:40:01;12.80;;;11.52;;
17214;SDS011;8723;51.502;6.918;2023-04-01T12:42:48;10.57;;;9.67;;
17214;SDS011;8723;51.502;6.918;2023-04-01T12:45:28;12.73;;;11.63;;
17214;SDS011;8723;51.502;6.918;2023-04-01T12:48:01;13.00;;;11.88;;
17214;SDS011;8723;51.502;6.918;2023-04-01T12:50:46;14.90;;;13.50;;
17214;SDS011;8723;51.502;6.918;2023-04-01T12:53:35;14.57;;;13.15;;
17214;SDS011;8723;51.502;6.918;2023-04-01T12:56:38;10.60;;;9.70;;
17214;SDS011;8723;51.502;6.918;2023-04-01T12:59:18;10.10;;;9.07;;
17214;SDS011;8723;51.502;6.918;2023-04-01T13:02:01;9.40;;;8.50;;
17214;SDS011;8723;51.502;6.918;2023-04-01T13:04:47;8.43;;;7.63;;
17214;SDS011;8723;51.502;6.918;2023-04-01T13:07:39;8.63;;;7.75;;
17214;SDS011;8723;51.502;6.918;2023-04-01T13:10:13;8.15;;;7.38;;
17214;SDS011;8723;51.502;6.918;2023-04-01T13:12:57;8.85;;;8.02;;
17214;SDS011;8723;51.502;6.918;2023-04-01T13:15:37;8.18;;;7.57;;
17214;SDS011;8723;51.502;6.918;2023-04-01T13:18:13;10.05;;;9.15;;
17214;SDS011;8723;51.502;6.918;2023-04-01T13:20:53;9.52;;;8.55;;
17214;SDS011;8723;51.502;6.918;2023-04-01T13:23:32;10.83;;;9.87;;
17214;SDS011;8723;51.502;6.918;2023-04-01T13:26:13;12.52;;;10.63;;
17214;SDS011;8723;51.502;6.918;2023-04-01T13:28:49;11.77;;;9.95;;
17214;SDS011;8723;51.502;6.918;2023-04-01T13:31:28;11.90;;;9.77;;
17214;SDS011;8723;51.502;6.918;2023-04-01T13:34:22;13.90;;;12.23;;
17214;SDS011;8723;51.502;6.918;2023-04-01T13:37:01;10.00;;;9.10;;
17214;SDS011;8723;51.502;6.918;2023-04-01T13:39:42;9.50;;;8.60;;
17214;SDS011;8723;51.502;6.918;2023-04-01T13:42:21;10.60;;;9.60;;
17214;SDS011;8723;51.502;6.918;2023-04-01T13:44:53;10.52;;;8.57;;
17214;SDS011;8723;51.502;6.918;2023-04-01T13:47:43;9.10;;;7.82;;
17214;SDS011;8723;51.502;6.918;2023-04-01T13:50:31;9.70;;;8.75;;
17214;SDS011;8723;51.502;6.918;2023-04-01T13:53:26;10.43;;;9.27;;
17214;SDS011;8723;51.502;6.918;2023-04-01T13:59:10;10.15;;;9.05;;
17214;SDS011;8723;51.502;6.918;2023-04-01T14:02:05;13.32;;;11.60;;
17214;SDS011;8723;51.502;6.918;2023-04-01T14:05:03;11.98;;;10.63;;
17214;SDS011;8723;51.502;6.918;2023-04-01T14:07:50;11.73;;;10.52;;
17214;SDS011;8723;51.502;6.918;2023-04-01T14:10:25;12.65;;;11.07;;
17214;SDS011;8723;51.502;6.918;2023-04-01T14:13:03;12.18;;;11.07;;
17214;SDS011;8723;51.502;6.918;2023-04-01T14:15:42;13.27;;;11.82;;
17214;SDS011;8723;51.502;6.918;2023-04-01T14:18:35;14.13;;;11.97;;
17214;SDS011;8723;51.502;6.918;2023-04-01T14:21:19;13.88;;;12.00;;
17214;SDS011;8723;51.502;6.918;2023-04-01T14:24:01;15.77;;;14.27;;
17214;SDS011;8723;51.502;6.918;2023-04-01T14:29:53;15.67;;;14.17;;
17214;SDS011;8723;51.502;6.918;2023-04-01T14:32:32;14.02;;;12.77;;
17214;SDS011;8723;51.502;6.918;2023-04-01T14:35:25;12.50;;;11.20;;
17214;SDS011;8723;51.502;6.918;2023-04-01T14:38:09;14.35;;;12.95;;
17214;SDS011;8723;51.502;6.918;2023-04-01T14:40:59;13.68;;;12.38;;
17214;SDS011;8723;51.502;6.918;2023-04-01T14:43:47;14.05;;;12.55;;
17214;SDS011;8723;51.502;6.918;2023-04-01T14:49:41;15.18;;;13.63;;
17214;SDS011;8723;51.502;6.918;2023-04-01T14:52:10;12.33;;;11.13;;
17214;SDS011;8723;51.502;6.918;2023-04-01T14:54:43;13.23;;;11.98;;
17214;SDS011;8723;51.502;6.918;2023-04-01T14:57:13;13.82;;;12.52;;
17214;SDS011;8723;51.502;6.918;2023-04-01T14:59:45;14.10;;;12.88;;
17214;SDS011;8723;51.502;6.918;2023-04-01T15:05:15;12.65;;;11.55;;
17214;SDS011;8723;51.502;6.918;2023-04-01T15:10:45;12.57;;;11.38;;
17214;SDS011;8723;51.502;6.918;2023-04-01T15:13:45;10.73;;;9.73;;
17214;SDS011;8723;51.502;6.918;2023-04-01T15:16:31;11.10;;;10.02;;
17214;SDS011;8723;51.502;6.918;2023-04-01T15:19:09;11.32;;;10.23;;
17214;SDS011;8723;51.502;6.918;2023-04-01T15:21:48;10.70;;;9.80;;
17214;SDS011;8723;51.502;6.918;2023-04-01T15:24:22;10.70;;;9.63;;
17214;SDS011;8723;51.502;6.918;2023-04-01T15:27:01;11.52;;;10.50;;
17214;SDS011;8723;51.502;6.918;2023-04-01T15:32:46;12.93;;;11.63;;
17214;SDS011;8723;51.502;6.918;2023-04-01T15:35:27;10.43;;;9.53;;
17214;SDS011;8723;51.502;6.918;2023-04-01T15:38:06;12.55;;;11.55;;
17214;SDS011;8723;51.502;6.918;2023-04-01T15:40:42;11.63;;;10.63;;
17214;SDS011;8723;51.502;6.918;2023-04-01T15:43:17;9.85;;;8.95;;
17214;SDS011;8723;51.502;6.918;2023-04-01T15:45:56;11.73;;;10.80;;
17214;SDS011;8723;51.502;6.918;2023-04-01T15:48:40;10.00;;;9.20;;
17214;SDS011;8723;51.502;6.918;2023-04-01T15:51:17;11.02;;;10.02;;
17214;SDS011;8723;51.502;6.918;2023-04-01T15:56:49;9.73;;;8.57;;
17214;SDS011;8723;51.502;6.918;2023-04-01T15:59:36;12.35;;;11.23;;
17214;SDS011;8723;51.502;6.918;2023-04-01T16:02:20;10.88;;;9.77;;
17214;SDS011;8723;51.502;6.918;2023-04-01T16:04:54;12.38;;;11.18;;
17214;SDS011;8723;51.502;6.918;2023-04-01T16:07:42;12.80;;;11.60;;
17214;SDS011;8723;51.502;6.918;2023-04-01T16:10:17;10.40;;;9.40;;
17214;SDS011;8723;51.502;6.918;2023-04-01T16:12:59;10.83;;;9.83;;
17214;SDS011;8723;51.502;6.918;2023-04-01T16:15:39;12.55;;;11.30;;
17214;SDS011;8723;51.502;6.918;2023-04-01T16:18:21;12.20;;;11.10;;
17214;SDS011;8723;51.502;6.918;2023-04-01T16:21:01;11.07;;;10.07;;
17214;SDS011;8723;51.502;6.918;2023-04-01T16:23:34;13.10;;;11.70;;
17214;SDS011;8723;51.502;6.918;2023-04-01T16:26:07;11.57;;;10.45;;
17214;SDS011;8723;51.502;6.918;2023-04-01T16:28:40;12.73;;;11.43;;
17214;SDS011;8723;51.502;6.918;2023-04-01T16:31:25;13.30;;;12.00;;
17214;SDS011;8723;51.502;6.918;2023-04-01T16:33:58;17.05;;;15.32;;
17214;SDS011;8723;51.502;6.918;2023-04-01T16:36:32;15.10;;;13.65;;
17214;SDS011;8723;51.502;6.918;2023-04-01T16:41:57;15.15;;;12.95;;
17214;SDS011;8723;51.502;6.918;2023-04-01T16:44:44;16.58;;;14.80;;
17214;SDS011;8723;51.502;6.918;2023-04-01T16:47:17;16.37;;;13.80;;
17214;SDS011;8723;51.502;6.918;2023-04-01T16:49:48;11.65;;;10.55;;
17214;SDS011;8723;51.502;6.918;2023-04-01T16:52:29;12.15;;;10.98;;
17214;SDS011;8723;51.502;6.918;2023-04-01T16:55:02;18.77;;;14.63;;